This is the latest recevied weather packets stored in our database for station/object MB7UKB-10. If no packets are shown the sender has not sent any weather packets the latest 10 day(s).
| Time | Temp. | Humidity | Pressure | Rain* | Wind** | Luminosity | Snow |
|---|---|---|---|---|---|---|---|
| 1777794145 | 12.78° C | 85% | 1010.1 hPa | 0 mm | - | - | - |
| 1777792344 | 12.22° C | 88% | 1010.1 hPa | 0 mm | - | - | - |
| 1777790544 | 12.22° C | 88% | 1009.9 hPa | 0 mm | - | - | - |
| 1777788744 | 12.22° C | 89% | 1009.8 hPa | 0 mm | - | - | - |
| 1777786943 | 11.67° C | 92% | 1009.7 hPa | 0 mm | - | - | - |
| 1777785143 | 11.11° C | 92% | 1009.6 hPa | 0 mm | - | - | - |
| 1777783344 | 11.11° C | 92% | 1009.4 hPa | 0 mm | - | - | - |
| 1777781544 | 11.67° C | 92% | 1009.4 hPa | 0 mm | - | - | - |
| 1777779743 | 11.67° C | 93% | 1009.4 hPa | 0 mm | - | - | - |
| 1777777943 | 11.11° C | 93% | 1009.7 hPa | 0 mm | - | - | - |
| 1777774343 | 12.22° C | 89% | 1009.8 hPa | 0 mm | - | - | - |
| 1777772544 | 12.22° C | 89% | 1010 hPa | 0 mm | - | - | - |
| 1777770743 | 12.78° C | 89% | 1010 hPa | 0 mm | - | - | - |
| 1777768944 | 12.22° C | 90% | 1010.7 hPa | 0 mm | - | - | - |
| 1777767144 | 12.78° C | 89% | 1010.6 hPa | 0 mm | - | - | - |
| 1777765344 | 12.78° C | 89% | 1010.8 hPa | 0 mm | - | - | - |
| 1777763544 | 12.78° C | 89% | 1010.9 hPa | 0 mm | - | - | - |
| 1777761744 | 13.33° C | 88% | 1010.7 hPa | 0 mm | - | - | - |
| 1777759944 | 13.33° C | 89% | 1010.8 hPa | 0 mm | - | - | - |
| 1777758144 | 13.33° C | 91% | 1010.8 hPa | 0 mm | - | - | - |
| 1777756344 | 13.33° C | 90% | 1010.9 hPa | 0 mm | - | - | - |
| 1777754543 | 13.33° C | 89% | 1011.1 hPa | 0 mm | - | - | - |
| 1777752744 | 13.89° C | 87% | 1011.4 hPa | 0 mm | - | - | - |
| 1777749144 | 14.44° C | 83% | 1011.3 hPa | 0 mm | - | - | - |
| 1777747344 | 14.44° C | 83% | 1011.4 hPa | 0 mm | - | - | - |
* Rain latest hour (hover to see other rain measurements)
** Current wind speed in m/s (hover to see current wind gust speed)